sensor_id;sensor_type;location;lat;lon;timestamp;pressure;altitude;pressure_sealevel;temperature;humidity
1832;BME280;1680;48.106;11.708;2023-08-08T00:00:46;95762.69;;;12.83;97.12
1832;BME280;1680;48.106;11.708;2023-08-08T00:03:13;95776.13;;;12.93;97.60
1832;BME280;1680;48.106;11.708;2023-08-08T00:05:40;95772.75;;;12.86;98.06
1832;BME280;1680;48.106;11.708;2023-08-08T00:08:07;95753.56;;;12.74;98.58
1832;BME280;1680;48.106;11.708;2023-08-08T00:10:35;95768.78;;;12.95;98.26
1832;BME280;1680;48.106;11.708;2023-08-08T00:13:02;95760.97;;;13.00;98.41
1832;BME280;1680;48.106;11.708;2023-08-08T00:15:31;95751.69;;;12.86;99.40
1832;BME280;1680;48.106;11.708;2023-08-08T00:17:59;95763.16;;;12.91;99.57
1832;BME280;1680;48.106;11.708;2023-08-08T00:20:26;95759.28;;;12.94;99.38
1832;BME280;1680;48.106;11.708;2023-08-08T00:22:53;95746.59;;;12.91;99.24
1832;BME280;1680;48.106;11.708;2023-08-08T00:25:20;95753.19;;;13.05;98.53
1832;BME280;1680;48.106;11.708;2023-08-08T00:27:49;95743.59;;;12.99;97.57
1832;BME280;1680;48.106;11.708;2023-08-08T00:30:17;95756.88;;;13.04;97.65
1832;BME280;1680;48.106;11.708;2023-08-08T00:32:45;95756.41;;;13.07;98.78
1832;BME280;1680;48.106;11.708;2023-08-08T00:35:12;95755.47;;;13.13;97.95
1832;BME280;1680;48.106;11.708;2023-08-08T00:37:39;95752.16;;;13.17;98.03
1832;BME280;1680;48.106;11.708;2023-08-08T00:40:07;95704.25;;;12.81;96.75
1832;BME280;1680;48.106;11.708;2023-08-08T00:42:35;95755.13;;;13.21;97.69
1832;BME280;1680;48.106;11.708;2023-08-08T00:45:02;95749.16;;;13.25;97.66
1832;BME280;1680;48.106;11.708;2023-08-08T00:47:30;95752.25;;;13.22;97.98
1832;BME280;1680;48.106;11.708;2023-08-08T00:50:00;95750.28;;;13.29;97.53
1832;BME280;1680;48.106;11.708;2023-08-08T00:52:28;95730.59;;;13.20;96.83
1832;BME280;1680;48.106;11.708;2023-08-08T00:54:55;95748.44;;;13.30;97.88
1832;BME280;1680;48.106;11.708;2023-08-08T00:57:23;95731.75;;;13.24;96.92
1832;BME280;1680;48.106;11.708;2023-08-08T00:59:51;95738.94;;;13.29;97.30
1832;BME280;1680;48.106;11.708;2023-08-08T01:02:18;95735.84;;;13.32;96.68
1832;BME280;1680;48.106;11.708;2023-08-08T01:04:45;95748.91;;;13.27;97.54
1832;BME280;1680;48.106;11.708;2023-08-08T01:07:17;95744.69;;;13.26;97.54
1832;BME280;1680;48.106;11.708;2023-08-08T01:09:52;95740.06;;;13.33;97.24
1832;BME280;1680;48.106;11.708;2023-08-08T01:12:23;95739.63;;;13.24;98.02
1832;BME280;1680;48.106;11.708;2023-08-08T01:14:51;95745.47;;;13.26;98.62
1832;BME280;1680;48.106;11.708;2023-08-08T01:17:19;95740.06;;;13.33;97.54
1832;BME280;1680;48.106;11.708;2023-08-08T01:19:48;95746.41;;;13.20;98.51
1832;BME280;1680;48.106;11.708;2023-08-08T01:22:23;95728.59;;;13.11;98.95
1832;BME280;1680;48.106;11.708;2023-08-08T01:24:54;95720.59;;;12.94;99.47
1832;BME280;1680;48.106;11.708;2023-08-08T01:27:21;95705.63;;;12.95;99.17
1832;BME280;1680;48.106;11.708;2023-08-08T01:29:49;95722.53;;;12.99;99.62
1832;BME280;1680;48.106;11.708;2023-08-08T01:32:16;95727.78;;;12.99;100.00
1832;BME280;1680;48.106;11.708;2023-08-08T01:34:43;95730.06;;;13.07;99.82
1832;BME280;1680;48.106;11.708;2023-08-08T01:37:14;95674.84;;;12.72;99.31
1832;BME280;1680;48.106;11.708;2023-08-08T01:39:45;95681.81;;;12.67;100.00
1832;BME280;1680;48.106;11.708;2023-08-08T01:42:15;95699.69;;;12.65;100.00
1832;BME280;1680;48.106;11.708;2023-08-08T01:44:43;95722.75;;;12.74;100.00
1832;BME280;1680;48.106;11.708;2023-08-08T01:47:10;95708.59;;;12.64;100.00
1832;BME280;1680;48.106;11.708;2023-08-08T01:49:37;95719.47;;;12.67;100.00
1832;BME280;1680;48.106;11.708;2023-08-08T01:52:05;95715.91;;;12.62;100.00
1832;BME280;1680;48.106;11.708;2023-08-08T01:54:32;95713.63;;;12.54;100.00
1832;BME280;1680;48.106;11.708;2023-08-08T01:56:59;95718.66;;;12.44;100.00
1832;BME280;1680;48.106;11.708;2023-08-08T01:59:28;95714.41;;;12.32;100.00
1832;BME280;1680;48.106;11.708;2023-08-08T02:01:55;95707.56;;;12.19;100.00
1832;BME280;1680;48.106;11.708;2023-08-08T02:04:22;95666.28;;;11.85;100.00
1832;BME280;1680;48.106;11.708;2023-08-08T02:06:49;95608.16;;;11.53;100.00
1832;BME280;1680;48.106;11.708;2023-08-08T02:09:16;95696.34;;;12.01;100.00
1832;BME280;1680;48.106;11.708;2023-08-08T02:11:43;95712.81;;;12.08;100.00
1832;BME280;1680;48.106;11.708;2023-08-08T02:14:11;95704.59;;;12.04;100.00
1832;BME280;1680;48.106;11.708;2023-08-08T02:16:40;95719.19;;;12.00;100.00
1832;BME280;1680;48.106;11.708;2023-08-08T02:19:07;95703.75;;;11.92;100.00
1832;BME280;1680;48.106;11.708;2023-08-08T02:21:34;95709.91;;;11.86;100.00
1832;BME280;1680;48.106;11.708;2023-08-08T02:24:02;95709.91;;;11.86;100.00
1832;BME280;1680;48.106;11.708;2023-08-08T02:26:29;95693.19;;;11.69;100.00
1832;BME280;1680;48.106;11.708;2023-08-08T02:28:56;95710.47;;;11.77;100.00
1832;BME280;1680;48.106;11.708;2023-08-08T02:31:23;95703.72;;;11.69;100.00
1832;BME280;1680;48.106;11.708;2023-08-08T02:33:52;95699.63;;;11.73;100.00
1832;BME280;1680;48.106;11.708;2023-08-08T02:36:20;95682.56;;;11.53;100.00
1832;BME280;1680;48.106;11.708;2023-08-08T02:38:47;95697.75;;;11.62;100.00
1832;BME280;1680;48.106;11.708;2023-08-08T02:41:15;95701.84;;;11.59;100.00
1832;BME280;1680;48.106;11.708;2023-08-08T02:43:42;95703.22;;;11.61;100.00
1832;BME280;1680;48.106;11.708;2023-08-08T02:46:10;95697.13;;;11.49;100.00
1832;BME280;1680;48.106;11.708;2023-08-08T02:48:37;95697.84;;;11.56;100.00
1832;BME280;1680;48.106;11.708;2023-08-08T02:51:06;95689.78;;;11.40;100.00
1832;BME280;1680;48.106;11.708;2023-08-08T02:53:33;95698.81;;;11.44;100.00
1832;BME280;1680;48.106;11.708;2023-08-08T02:56:00;95669.47;;;11.17;100.00
1832;BME280;1680;48.106;11.708;2023-08-08T02:58:27;95702.75;;;11.35;100.00
1832;BME280;1680;48.106;11.708;2023-08-08T03:00:54;95594.16;;;10.59;100.00
1832;BME280;1680;48.106;11.708;2023-08-08T03:03:23;95689.91;;;11.15;100.00
1832;BME280;1680;48.106;11.708;2023-08-08T03:05:50;95697.91;;;11.20;100.00
1832;BME280;1680;48.106;11.708;2023-08-08T03:08:19;95705.13;;;11.25;100.00
1832;BME280;1680;48.106;11.708;2023-08-08T03:10:46;95704.44;;;11.29;100.00
1832;BME280;1680;48.106;11.708;2023-08-08T03:13:13;95702.78;;;11.17;100.00
1832;BME280;1680;48.106;11.708;2023-08-08T03:15:40;95706.00;;;11.19;100.00
1832;BME280;1680;48.106;11.708;2023-08-08T03:18:07;95707.59;;;11.20;100.00
1832;BME280;1680;48.106;11.708;2023-08-08T03:20:34;95638.28;;;10.80;100.00
1832;BME280;1680;48.106;11.708;2023-08-08T03:23:03;95622.72;;;10.67;100.00
1832;BME280;1680;48.106;11.708;2023-08-08T03:25:31;95704.13;;;11.08;100.00
1832;BME280;1680;48.106;11.708;2023-08-08T03:27:59;95704.47;;;11.11;100.00
1832;BME280;1680;48.106;11.708;2023-08-08T03:30:26;95702.22;;;11.15;100.00
1832;BME280;1680;48.106;11.708;2023-08-08T03:32:53;95711.63;;;11.22;100.00
1832;BME280;1680;48.106;11.708;2023-08-08T03:35:20;95704.38;;;11.18;100.00
1832;BME280;1680;48.106;11.708;2023-08-08T03:37:47;95702.25;;;11.26;100.00
1832;BME280;1680;48.106;11.708;2023-08-08T03:40:14;95677.13;;;11.19;100.00
1832;BME280;1680;48.106;11.708;2023-08-08T03:42:43;95697.66;;;11.40;100.00
1832;BME280;1680;48.106;11.708;2023-08-08T03:45:10;95695.28;;;11.50;100.00
1832;BME280;1680;48.106;11.708;2023-08-08T03:47:38;95697.78;;;11.45;100.00
1832;BME280;1680;48.106;11.708;2023-08-08T03:50:06;95698.31;;;11.53;100.00
1832;BME280;1680;48.106;11.708;2023-08-08T03:52:33;95697.84;;;11.56;100.00
1832;BME280;1680;48.106;11.708;2023-08-08T03:55:03;95677.84;;;11.55;100.00
1832;BME280;1680;48.106;11.708;2023-08-08T03:57:30;95669.94;;;11.44;100.00
1832;BME280;1680;48.106;11.708;2023-08-08T03:59:59;95697.19;;;11.61;100.00
1832;BME280;1680;48.106;11.708;2023-08-08T04:02:26;95698.47;;;11.69;100.00
1832;BME280;1680;48.106;11.708;2023-08-08T04:04:54;95694.81;;;11.70;100.00
1832;BME280;1680;48.106;11.708;2023-08-08T04:07:21;95700.75;;;11.77;100.00
1832;BME280;1680;48.106;11.708;2023-08-08T04:09:48;95701.81;;;11.88;100.00
1832;BME280;1680;48.106;11.708;2023-08-08T04:12:15;95698.97;;;11.89;100.00
1832;BME280;1680;48.106;11.708;2023-08-08T04:14:42;95702.13;;;11.91;100.00
1832;BME280;1680;48.106;11.708;2023-08-08T04:17:11;95713.38;;;11.98;100.00
1832;BME280;1680;48.106;11.708;2023-08-08T04:19:38;95690.59;;;11.81;100.00
1832;BME280;1680;48.106;11.708;2023-08-08T04:22:05;95710.88;;;12.03;100.00
1832;BME280;1680;48.106;11.708;2023-08-08T04:24:32;95713.72;;;12.02;100.00
1832;BME280;1680;48.106;11.708;2023-08-08T04:26:59;95701.16;;;12.04;100.00
1832;BME280;1680;48.106;11.708;2023-08-08T04:29:26;95708.81;;;12.05;100.00
1832;BME280;1680;48.106;11.708;2023-08-08T04:31:53;95665.91;;;11.70;100.00
1832;BME280;1680;48.106;11.708;2023-08-08T04:34:23;95722.50;;;12.07;100.00
1832;BME280;1680;48.106;11.708;2023-08-08T04:36:50;95714.41;;;12.09;100.00
1832;BME280;1680;48.106;11.708;2023-08-08T04:39:17;95717.06;;;12.20;100.00
1832;BME280;1680;48.106;11.708;2023-08-08T04:41:44;95715.66;;;12.18;100.00
1832;BME280;1680;48.106;11.708;2023-08-08T04:44:11;95708.38;;;12.20;100.00
1832;BME280;1680;48.106;11.708;2023-08-08T04:46:38;95710.31;;;12.36;100.00
1832;BME280;1680;48.106;11.708;2023-08-08T04:49:05;95649.59;;;11.91;100.00
1832;BME280;1680;48.106;11.708;2023-08-08T04:51:33;95715.91;;;12.39;100.00
1832;BME280;1680;48.106;11.708;2023-08-08T04:54:00;95707.34;;;12.44;100.00
1832;BME280;1680;48.106;11.708;2023-08-08T04:56:27;95718.22;;;12.47;100.00
1832;BME280;1680;48.106;11.708;2023-08-08T04:58:54;95711.56;;;12.56;100.00
1832;BME280;1680;48.106;11.708;2023-08-08T05:01:21;95721.41;;;12.60;100.00
1832;BME280;1680;48.106;11.708;2023-08-08T05:03:49;95711.91;;;12.71;100.00
1832;BME280;1680;48.106;11.708;2023-08-08T05:06:16;95713.63;;;12.77;100.00
1832;BME280;1680;48.106;11.708;2023-08-08T05:08:44;95640.56;;;12.33;100.00
1832;BME280;1680;48.106;11.708;2023-08-08T05:11:11;95717.28;;;12.76;100.00
1832;BME280;1680;48.106;11.708;2023-08-08T05:13:39;95718.44;;;12.80;100.00
1832;BME280;1680;48.106;11.708;2023-08-08T05:16:06;95698.63;;;12.77;100.00
1832;BME280;1680;48.106;11.708;2023-08-08T05:18:33;95715.66;;;12.98;100.00
1832;BME280;1680;48.106;11.708;2023-08-08T05:21:00;95709.78;;;13.07;100.00
1832;BME280;1680;48.106;11.708;2023-08-08T05:23:27;95711.84;;;13.17;100.00
1832;BME280;1680;48.106;11.708;2023-08-08T05:25:55;95715.63;;;13.21;100.00
1832;BME280;1680;48.106;11.708;2023-08-08T05:28:23;95702.59;;;13.14;100.00
1832;BME280;1680;48.106;11.708;2023-08-08T05:30:50;95712.53;;;13.24;100.00
1832;BME280;1680;48.106;11.708;2023-08-08T05:33:17;95706.28;;;13.30;100.00
1832;BME280;1680;48.106;11.708;2023-08-08T05:35:44;95697.03;;;13.27;100.00
1832;BME280;1680;48.106;11.708;2023-08-08T05:38:11;95712.06;;;13.55;100.00
1832;BME280;1680;48.106;11.708;2023-08-08T05:40:43;95663.59;;;13.28;100.00
1832;BME280;1680;48.106;11.708;2023-08-08T05:43:11;95709.13;;;13.67;100.00
1832;BME280;1680;48.106;11.708;2023-08-08T05:45:42;95713.06;;;13.81;100.00
1832;BME280;1680;48.106;11.708;2023-08-08T05:48:09;95707.50;;;13.94;100.00
1832;BME280;1680;48.106;11.708;2023-08-08T05:50:37;95705.09;;;14.09;99.36
1832;BME280;1680;48.106;11.708;2023-08-08T05:53:04;95701.75;;;14.14;99.65
1832;BME280;1680;48.106;11.708;2023-08-08T05:55:32;95699.44;;;14.17;97.75
1832;BME280;1680;48.106;11.708;2023-08-08T05:57:59;95702.31;;;14.32;97.61
1832;BME280;1680;48.106;11.708;2023-08-08T06:00:27;95711.34;;;14.36;97.70
1832;BME280;1680;48.106;11.708;2023-08-08T06:02:54;95708.25;;;14.39;94.97
1832;BME280;1680;48.106;11.708;2023-08-08T06:05:22;95703.34;;;14.48;94.28
1832;BME280;1680;48.106;11.708;2023-08-08T06:07:49;95700.31;;;14.39;92.65
1832;BME280;1680;48.106;11.708;2023-08-08T06:10:17;95702.41;;;14.37;94.77
1832;BME280;1680;48.106;11.708;2023-08-08T06:12:44;95697.59;;;14.34;92.54
1832;BME280;1680;48.106;11.708;2023-08-08T06:15:11;95712.63;;;14.50;92.98
1832;BME280;1680;48.106;11.708;2023-08-08T06:17:39;95702.75;;;14.62;92.08
1832;BME280;1680;48.106;11.708;2023-08-08T06:20:07;95684.91;;;14.69;90.70
1832;BME280;1680;48.106;11.708;2023-08-08T06:22:36;95725.91;;;14.93;88.48
1832;BME280;1680;48.106;11.708;2023-08-08T06:25:05;95707.31;;;15.04;87.59
1832;BME280;1680;48.106;11.708;2023-08-08T06:27:32;95704.38;;;15.01;87.18
1832;BME280;1680;48.106;11.708;2023-08-08T06:29:59;95711.59;;;14.89;87.46
1832;BME280;1680;48.106;11.708;2023-08-08T06:32:34;95701.38;;;14.76;88.51
1832;BME280;1680;48.106;11.708;2023-08-08T06:35:03;95706.16;;;14.95;88.80
1832;BME280;1680;48.106;11.708;2023-08-08T06:37:31;95709.09;;;14.99;88.10
1832;BME280;1680;48.106;11.708;2023-08-08T06:39:58;95711.66;;;15.15;86.12
1832;BME280;1680;48.106;11.708;2023-08-08T06:42:25;95710.13;;;15.19;87.02
1832;BME280;1680;48.106;11.708;2023-08-08T06:44:52;95709.22;;;15.30;86.14
1832;BME280;1680;48.106;11.708;2023-08-08T06:47:20;95710.63;;;15.38;86.44
1832;BME280;1680;48.106;11.708;2023-08-08T06:49:47;95707.28;;;15.42;85.93
1832;BME280;1680;48.106;11.708;2023-08-08T06:52:15;95705.53;;;15.52;86.74
1832;BME280;1680;48.106;11.708;2023-08-08T06:54:42;95688.59;;;15.49;83.37
1832;BME280;1680;48.106;11.708;2023-08-08T06:57:10;95701.28;;;15.78;83.00
1832;BME280;1680;48.106;11.708;2023-08-08T06:59:37;95652.44;;;15.59;83.54
1832;BME280;1680;48.106;11.708;2023-08-08T07:02:04;95703.78;;;16.16;82.17
1832;BME280;1680;48.106;11.708;2023-08-08T07:04:31;95700.94;;;16.27;81.33
1832;BME280;1680;48.106;11.708;2023-08-08T07:06:58;95673.31;;;16.13;81.11
1832;BME280;1680;48.106;11.708;2023-08-08T07:09:27;95696.81;;;16.36;80.93
1832;BME280;1680;48.106;11.708;2023-08-08T07:11:54;95694.66;;;16.33;81.28
1832;BME280;1680;48.106;11.708;2023-08-08T07:14:24;95693.66;;;16.39;81.50
1832;BME280;1680;48.106;11.708;2023-08-08T07:16:51;95677.78;;;16.39;80.63
1832;BME280;1680;48.106;11.708;2023-08-08T07:19:18;95684.50;;;16.56;79.70
1832;BME280;1680;48.106;11.708;2023-08-08T07:21:46;95669.63;;;16.46;80.79
1832;BME280;1680;48.106;11.708;2023-08-08T07:24:13;95665.06;;;16.41;81.71
1832;BME280;1680;48.106;11.708;2023-08-08T07:26:42;95684.88;;;16.70;76.14
1832;BME280;1680;48.106;11.708;2023-08-08T07:29:09;95682.22;;;16.70;77.45
1832;BME280;1680;48.106;11.708;2023-08-08T07:31:36;95695.78;;;16.83;78.96
1832;BME280;1680;48.106;11.708;2023-08-08T07:34:04;95690.78;;;16.87;79.54
1832;BME280;1680;48.106;11.708;2023-08-08T07:36:33;95693.47;;;16.92;78.98
1832;BME280;1680;48.106;11.708;2023-08-08T07:39:00;95691.63;;;16.97;77.36
1832;BME280;1680;48.106;11.708;2023-08-08T07:41:29;95686.31;;;16.97;76.59
1832;BME280;1680;48.106;11.708;2023-08-08T07:43:58;95688.44;;;16.95;76.40
1832;BME280;1680;48.106;11.708;2023-08-08T07:46:25;95660.84;;;16.86;73.69
1832;BME280;1680;48.106;11.708;2023-08-08T07:48:53;95686.19;;;17.24;76.95
1832;BME280;1680;48.106;11.708;2023-08-08T07:51:20;95682.00;;;17.33;76.01
1832;BME280;1680;48.106;11.708;2023-08-08T07:53:49;95668.19;;;17.26;74.90
1832;BME280;1680;48.106;11.708;2023-08-08T07:56:16;95695.84;;;17.50;73.09
1832;BME280;1680;48.106;11.708;2023-08-08T07:58:43;95686.63;;;17.72;72.88
1832;BME280;1680;48.106;11.708;2023-08-08T08:01:12;95676.81;;;17.67;73.32
1832;BME280;1680;48.106;11.708;2023-08-08T08:03:39;95687.47;;;17.87;72.16
1832;BME280;1680;48.106;11.708;2023-08-08T08:06:07;95674.47;;;17.96;70.52
1832;BME280;1680;48.106;11.708;2023-08-08T08:08:34;95667.56;;;18.15;70.06
1832;BME280;1680;48.106;11.708;2023-08-08T08:11:01;95662.53;;;18.18;70.91
1832;BME280;1680;48.106;11.708;2023-08-08T08:13:29;95666.50;;;18.21;69.84
1832;BME280;1680;48.106;11.708;2023-08-08T08:15:56;95649.00;;;18.30;69.69
1832;BME280;1680;48.106;11.708;2023-08-08T08:18:25;95658.28;;;18.37;68.10
1832;BME280;1680;48.106;11.708;2023-08-08T08:20:52;95654.56;;;18.38;66.11
1832;BME280;1680;48.106;11.708;2023-08-08T08:23:20;95657.50;;;18.42;66.92
1832;BME280;1680;48.106;11.708;2023-08-08T08:25:47;95647.63;;;18.52;66.52
1832;BME280;1680;48.106;11.708;2023-08-08T08:28:16;95643.38;;;18.66;67.06
1832;BME280;1680;48.106;11.708;2023-08-08T08:30:43;95650.84;;;18.59;64.88
1832;BME280;1680;48.106;11.708;2023-08-08T08:33:10;95643.09;;;18.72;67.76
1832;BME280;1680;48.106;11.708;2023-08-08T08:35:39;95647.84;;;18.85;67.41
1832;BME280;1680;48.106;11.708;2023-08-08T08:38:06;95641.38;;;19.06;65.99
1832;BME280;1680;48.106;11.708;2023-08-08T08:40:36;95637.38;;;19.19;64.44
1832;BME280;1680;48.106;11.708;2023-08-08T08:43:07;95638.31;;;19.43;63.37
1832;BME280;1680;48.106;11.708;2023-08-08T08:45:37;95643.63;;;19.48;60.15
1832;BME280;1680;48.106;11.708;2023-08-08T08:48:07;95647.34;;;19.42;59.94
1832;BME280;1680;48.106;11.708;2023-08-08T08:50:36;95639.06;;;19.48;61.12
1832;BME280;1680;48.106;11.708;2023-08-08T08:53:06;95643.84;;;19.56;59.91
1832;BME280;1680;48.106;11.708;2023-08-08T08:55:33;95614.53;;;19.61;59.54
1832;BME280;1680;48.106;11.708;2023-08-08T08:58:01;95624.81;;;19.77;59.93
1832;BME280;1680;48.106;11.708;2023-08-08T09:00:30;95608.34;;;19.70;60.71
1832;BME280;1680;48.106;11.708;2023-08-08T09:02:58;95609.03;;;19.86;58.07
1832;BME280;1680;48.106;11.708;2023-08-08T09:05:25;95635.25;;;20.07;58.21
1832;BME280;1680;48.106;11.708;2023-08-08T09:07:53;95625.00;;;20.24;57.76
1832;BME280;1680;48.106;11.708;2023-08-08T09:10:23;95625.13;;;20.09;57.16
1832;BME280;1680;48.106;11.708;2023-08-08T09:12:51;95635.16;;;20.17;57.28
1832;BME280;1680;48.106;11.708;2023-08-08T09:15:18;95611.94;;;20.23;56.68
1832;BME280;1680;48.106;11.708;2023-08-08T09:17:46;95604.72;;;20.28;58.21
1832;BME280;1680;48.106;11.708;2023-08-08T09:20:13;95580.31;;;20.16;54.64
1832;BME280;1680;48.106;11.708;2023-08-08T09:22:41;95593.44;;;20.08;56.04
1832;BME280;1680;48.106;11.708;2023-08-08T09:25:08;95629.69;;;20.37;56.03
1832;BME280;1680;48.106;11.708;2023-08-08T09:27:37;95615.38;;;20.28;54.54
1832;BME280;1680;48.106;11.708;2023-08-08T09:30:05;95610.13;;;20.18;54.72
1832;BME280;1680;48.106;11.708;2023-08-08T09:32:34;95619.13;;;20.27;55.29
1832;BME280;1680;48.106;11.708;2023-08-08T09:35:02;95615.81;;;20.40;53.88
1832;BME280;1680;48.106;11.708;2023-08-08T09:37:29;95620.59;;;20.38;54.98
1832;BME280;1680;48.106;11.708;2023-08-08T09:39:57;95598.81;;;20.31;54.85
1832;BME280;1680;48.106;11.708;2023-08-08T09:42:25;95610.38;;;20.50;56.00
1832;BME280;1680;48.106;11.708;2023-08-08T09:44:56;95603.84;;;20.61;55.24
1832;BME280;1680;48.106;11.708;2023-08-08T09:47:23;95604.78;;;20.75;54.26
1832;BME280;1680;48.106;11.708;2023-08-08T09:49:57;95581.56;;;20.52;53.81
1832;BME280;1680;48.106;11.708;2023-08-08T09:52:26;95590.28;;;20.34;52.05
1832;BME280;1680;48.106;11.708;2023-08-08T09:54:55;95611.63;;;20.57;50.68
1832;BME280;1680;48.106;11.708;2023-08-08T09:57:22;95603.84;;;20.61;51.96
1832;BME280;1680;48.106;11.708;2023-08-08T09:59:51;95583.31;;;20.38;50.96
1832;BME280;1680;48.106;11.708;2023-08-08T10:02:20;95600.81;;;20.21;50.58
1832;BME280;1680;48.106;11.708;2023-08-08T10:04:49;95595.66;;;20.29;51.73
1832;BME280;1680;48.106;11.708;2023-08-08T10:07:16;95600.25;;;20.47;52.35
1832;BME280;1680;48.106;11.708;2023-08-08T10:09:44;95602.50;;;20.35;53.70
1832;BME280;1680;48.106;11.708;2023-08-08T10:12:11;95594.81;;;20.34;52.65
1832;BME280;1680;48.106;11.708;2023-08-08T10:14:42;95598.59;;;20.56;52.04
1832;BME280;1680;48.106;11.708;2023-08-08T10:17:13;95569.09;;;20.71;50.16
1832;BME280;1680;48.106;11.708;2023-08-08T10:19:49;95608.97;;;21.28;50.39
1832;BME280;1680;48.106;11.708;2023-08-08T10:22:20;95594.00;;;21.68;49.68
1832;BME280;1680;48.106;11.708;2023-08-08T10:24:51;95594.84;;;21.82;48.12
1832;BME280;1680;48.106;11.708;2023-08-08T10:27:28;95548.47;;;21.60;48.27
1832;BME280;1680;48.106;11.708;2023-08-08T10:30:01;95589.81;;;21.81;47.07
1832;BME280;1680;48.106;11.708;2023-08-08T10:32:38;95590.19;;;21.74;46.92
1832;BME280;1680;48.106;11.708;2023-08-08T10:35:08;95569.84;;;21.78;47.16
1832;BME280;1680;48.106;11.708;2023-08-08T10:37:37;95583.81;;;21.89;48.04
1832;BME280;1680;48.106;11.708;2023-08-08T10:40:06;95598.53;;;21.86;46.68
1832;BME280;1680;48.106;11.708;2023-08-08T10:42:42;95579.06;;;21.86;47.44
1832;BME280;1680;48.106;11.708;2023-08-08T10:45:11;95580.00;;;21.58;49.29
1832;BME280;1680;48.106;11.708;2023-08-08T10:47:39;95573.06;;;21.39;50.79
1832;BME280;1680;48.106;11.708;2023-08-08T10:50:09;95588.94;;;21.49;48.52
1832;BME280;1680;48.106;11.708;2023-08-08T10:52:50;95581.22;;;21.65;49.45
1832;BME280;1680;48.106;11.708;2023-08-08T10:55:19;95531.00;;;21.67;47.95
1832;BME280;1680;48.106;11.708;2023-08-08T10:57:53;95579.81;;;22.37;47.80
1832;BME280;1680;48.106;11.708;2023-08-08T11:00:24;95574.97;;;22.39;47.69
1832;BME280;1680;48.106;11.708;2023-08-08T11:02:53;95583.50;;;22.41;49.49
1832;BME280;1680;48.106;11.708;2023-08-08T11:05:28;95574.69;;;22.40;48.94
1832;BME280;1680;48.106;11.708;2023-08-08T11:07:58;95559.25;;;22.05;45.65
1832;BME280;1680;48.106;11.708;2023-08-08T11:10:25;95552.25;;;22.23;46.20
1832;BME280;1680;48.106;11.708;2023-08-08T11:12:57;95565.22;;;22.61;47.51
1832;BME280;1680;48.106;11.708;2023-08-08T11:15:25;95577.91;;;22.82;45.27
1832;BME280;1680;48.106;11.708;2023-08-08T11:17:52;95561.44;;;22.62;42.93
1832;BME280;1680;48.106;11.708;2023-08-08T11:20:20;95568.31;;;22.68;43.44
1832;BME280;1680;48.106;11.708;2023-08-08T11:22:52;95561.16;;;22.50;44.48
1832;BME280;1680;48.106;11.708;2023-08-08T11:25:20;95568.41;;;22.76;46.61
1832;BME280;1680;48.106;11.708;2023-08-08T11:27:52;95574.53;;;22.90;43.88
1832;BME280;1680;48.106;11.708;2023-08-08T11:30:21;95554.31;;;22.84;44.02
1832;BME280;1680;48.106;11.708;2023-08-08T11:32:49;95552.34;;;22.63;43.38
1832;BME280;1680;48.106;11.708;2023-08-08T11:35:17;95552.34;;;22.63;43.00
1832;BME280;1680;48.106;11.708;2023-08-08T11:37:45;95562.84;;;22.59;43.53
1832;BME280;1680;48.106;11.708;2023-08-08T11:40:17;95553.78;;;22.42;42.67
1832;BME280;1680;48.106;11.708;2023-08-08T11:42:45;95567.66;;;22.44;44.30
1832;BME280;1680;48.106;11.708;2023-08-08T11:45:13;95541.84;;;22.53;46.27
1832;BME280;1680;48.106;11.708;2023-08-08T11:47:40;95547.00;;;22.63;43.28
1832;BME280;1680;48.106;11.708;2023-08-08T11:50:09;95550.00;;;22.30;44.24
1832;BME280;1680;48.106;11.708;2023-08-08T11:52:40;95540.38;;;22.15;41.99
1832;BME280;1680;48.106;11.708;2023-08-08T11:55:08;95547.09;;;22.26;43.72
1832;BME280;1680;48.106;11.708;2023-08-08T11:57:38;95515.69;;;22.37;43.89
1832;BME280;1680;48.106;11.708;2023-08-08T12:00:07;95522.41;;;22.48;44.49
1832;BME280;1680;48.106;11.708;2023-08-08T12:02:38;95533.34;;;22.51;43.25
1832;BME280;1680;48.106;11.708;2023-08-08T12:05:06;95492.72;;;22.36;41.83
1832;BME280;1680;48.106;11.708;2023-08-08T12:07:36;95529.38;;;22.62;40.15
1832;BME280;1680;48.106;11.708;2023-08-08T12:10:12;95537.28;;;22.53;43.68
1832;BME280;1680;48.106;11.708;2023-08-08T12:12:41;95524.59;;;22.59;40.22
1832;BME280;1680;48.106;11.708;2023-08-08T12:15:09;95524.91;;;22.71;38.85
1832;BME280;1680;48.106;11.708;2023-08-08T12:17:37;95493.81;;;22.48;39.38
1832;BME280;1680;48.106;11.708;2023-08-08T12:20:05;95520.25;;;22.63;38.96
1832;BME280;1680;48.106;11.708;2023-08-08T12:22:33;95497.88;;;22.59;41.08
1832;BME280;1680;48.106;11.708;2023-08-08T12:25:01;95498.84;;;22.90;43.61
1832;BME280;1680;48.106;11.708;2023-08-08T12:27:28;95533.47;;;23.35;41.68
1832;BME280;1680;48.106;11.708;2023-08-08T12:29:57;95516.28;;;23.50;39.17
1832;BME280;1680;48.106;11.708;2023-08-08T12:32:25;95524.25;;;23.63;39.00
1832;BME280;1680;48.106;11.708;2023-08-08T12:34:54;95517.25;;;23.53;38.06
1832;BME280;1680;48.106;11.708;2023-08-08T12:37:22;95503.13;;;23.40;38.83
1832;BME280;1680;48.106;11.708;2023-08-08T12:39:50;95519.84;;;23.10;39.55
1832;BME280;1680;48.106;11.708;2023-08-08T12:42:17;95530.91;;;23.30;40.73
1832;BME280;1680;48.106;11.708;2023-08-08T12:44:44;95526.47;;;23.48;40.39
1832;BME280;1680;48.106;11.708;2023-08-08T12:47:13;95464.81;;;23.04;39.53
1832;BME280;1680;48.106;11.708;2023-08-08T12:49:43;95514.75;;;23.57;36.93
1832;BME280;1680;48.106;11.708;2023-08-08T12:52:11;95518.25;;;23.57;36.35
1832;BME280;1680;48.106;11.708;2023-08-08T12:54:38;95516.66;;;23.21;36.15
1832;BME280;1680;48.106;11.708;2023-08-08T12:57:06;95523.22;;;23.15;37.47
1832;BME280;1680;48.106;11.708;2023-08-08T12:59:33;95514.66;;;23.27;37.29
1832;BME280;1680;48.106;11.708;2023-08-08T13:02:00;95513.34;;;23.38;36.94
1832;BME280;1680;48.106;11.708;2023-08-08T13:04:28;95517.50;;;23.65;37.02
1832;BME280;1680;48.106;11.708;2023-08-08T13:06:55;95526.00;;;23.81;36.52
1832;BME280;1680;48.106;11.708;2023-08-08T13:09:23;95514.41;;;23.50;36.27
1832;BME280;1680;48.106;11.708;2023-08-08T13:11:50;95504.22;;;23.60;36.68